createdAt,value
2022-09-06T00:02:21.507Z,16.00
2022-09-06T00:06:43.465Z,16.00
2022-09-06T00:11:06.271Z,16.00
2022-09-06T00:15:28.792Z,16.10
2022-09-06T00:19:50.667Z,16.10
2022-09-06T00:24:12.564Z,16.10
2022-09-06T00:28:34.844Z,16.10
2022-09-06T00:32:57.927Z,16.20
2022-09-06T00:37:20.186Z,16.30
2022-09-06T00:41:42.200Z,16.30
2022-09-06T00:46:07.630Z,16.40
2022-09-06T00:50:29.869Z,16.50
2022-09-06T00:54:52.905Z,16.50
2022-09-06T00:59:15.747Z,16.50
2022-09-06T01:03:38.304Z,16.50
2022-09-06T01:08:10.844Z,16.50
2022-09-06T01:13:12.704Z,16.50
2022-09-06T01:18:07.624Z,16.50
2022-09-06T01:23:07.065Z,16.40
2022-09-06T01:28:36.423Z,16.40
2022-09-06T01:33:19.924Z,16.40
2022-09-06T01:37:42.184Z,16.40
2022-09-06T01:42:10.224Z,16.50
2022-09-06T01:46:42.464Z,16.50
2022-09-06T01:51:39.667Z,16.50
2022-09-06T01:56:29.544Z,16.50
2022-09-06T02:01:12.563Z,16.50
2022-09-06T02:05:59.152Z,16.50
2022-09-06T02:10:58.212Z,16.60
2022-09-06T02:15:26.046Z,16.80
2022-09-06T02:20:13.453Z,16.90
2022-09-06T02:24:39.033Z,17.00
2022-09-06T02:29:01.412Z,16.90
2022-09-06T02:33:29.373Z,17.00
2022-09-06T02:37:52.253Z,17.00
2022-09-06T02:42:16.052Z,17.10
2022-09-06T02:46:38.273Z,17.20
2022-09-06T02:51:06.673Z,17.20
2022-09-06T02:55:28.885Z,17.30
2022-09-06T02:59:51.612Z,17.40
2022-09-06T03:04:13.492Z,17.40
2022-09-06T03:08:36.674Z,17.30
2022-09-06T03:12:58.794Z,17.20
2022-09-06T03:17:20.993Z,17.20
2022-09-06T03:21:43.184Z,17.20
2022-09-06T03:26:06.394Z,17.30
2022-09-06T03:30:28.096Z,17.30
2022-09-06T03:34:49.984Z,17.30
2022-09-06T03:39:12.253Z,17.30
2022-09-06T03:43:34.512Z,17.40
2022-09-06T03:47:56.553Z,17.40
2022-09-06T03:52:18.732Z,17.40
2022-09-06T03:56:40.532Z,17.40
2022-09-06T04:01:09.475Z,17.40
2022-09-06T04:05:31.527Z,17.40
2022-09-06T04:09:53.653Z,17.30
2022-09-06T04:14:15.992Z,17.40
2022-09-06T04:18:37.795Z,17.30
2022-09-06T04:22:59.784Z,17.20
2022-09-06T04:27:21.934Z,17.20
2022-09-06T04:31:43.866Z,17.20
2022-09-06T04:36:10.276Z,17.20
2022-09-06T04:40:32.026Z,17.20
2022-09-06T04:44:54.175Z,17.20
2022-09-06T04:49:16.425Z,17.20
2022-09-06T04:53:38.332Z,17.30
2022-09-06T04:58:01.406Z,17.50
2022-09-06T05:02:23.554Z,18.20
2022-09-06T05:06:45.712Z,18.30
2022-09-06T05:11:08.924Z,18.10
2022-09-06T05:15:31.192Z,17.90
2022-09-06T05:19:53.392Z,17.70
2022-09-06T05:24:15.374Z,17.70
2022-09-06T05:28:37.656Z,17.70
2022-09-06T05:32:59.952Z,17.80
2022-09-06T05:37:22.356Z,17.90
2022-09-06T05:41:44.592Z,18.10
2022-09-06T05:46:06.688Z,18.40
2022-09-06T05:50:28.582Z,18.80
2022-09-06T05:54:50.857Z,19.20
2022-09-06T05:59:12.973Z,19.70
2022-09-06T06:03:35.012Z,20.10
2022-09-06T06:07:58.353Z,20.50
2022-09-06T06:12:20.574Z,20.60
2022-09-06T06:16:42.786Z,20.60
2022-09-06T06:21:16.139Z,20.80
2022-09-06T06:25:37.995Z,21.00
2022-09-06T06:30:00.212Z,21.20
2022-09-06T06:34:22.534Z,21.30
2022-09-06T06:38:46.473Z,21.50
2022-09-06T06:43:11.012Z,21.70
2022-09-06T06:47:33.354Z,21.70
2022-09-06T06:51:55.453Z,21.80
2022-09-06T06:56:25.533Z,21.70
2022-09-06T07:00:47.921Z,21.40
2022-09-06T07:14:35.152Z,20.80
2022-09-06T07:18:57.253Z,20.90
2022-09-06T07:28:07.296Z,20.90
2022-09-06T07:32:31.185Z,21.00
2022-09-06T07:36:56.752Z,21.20
2022-09-06T07:41:19.692Z,21.20
2022-09-06T07:45:41.953Z,21.30
2022-09-06T07:54:48.632Z,22.90
2022-09-06T07:59:10.492Z,24.70
2022-09-06T08:03:32.493Z,26.40
2022-09-06T08:12:36.953Z,30.10
2022-09-06T08:16:59.314Z,33.10
2022-09-06T08:21:26.773Z,34.60
2022-09-06T08:25:59.233Z,33.50
2022-09-06T08:30:21.506Z,32.30
2022-09-06T08:34:43.772Z,32.40
2022-09-06T08:39:07.801Z,31.30
2022-09-06T08:43:30.193Z,29.80
2022-09-06T08:47:52.813Z,29.20
2022-09-06T08:53:18.299Z,29.40
2022-09-06T08:57:52.692Z,30.50
2022-09-06T09:02:20.441Z,33.90
2022-09-06T09:06:45.076Z,37.70
2022-09-06T09:11:16.515Z,39.10
2022-09-06T09:15:40.380Z,37.90
2022-09-06T09:20:03.833Z,36.60
2022-09-06T09:24:25.894Z,35.50
2022-09-06T09:29:14.376Z,34.00
2022-09-06T09:33:40.292Z,32.40
2022-09-06T09:38:35.213Z,31.50
2022-09-06T09:43:10.936Z,30.70
2022-09-06T09:47:34.353Z,30.40
2022-09-06T09:52:15.020Z,30.50
2022-09-06T09:56:53.492Z,30.90
2022-09-06T10:01:31.672Z,31.00
2022-09-06T10:06:02.510Z,31.70
2022-09-06T10:10:54.633Z,31.90
2022-09-06T10:15:39.172Z,31.60
2022-09-06T10:20:10.593Z,31.50
2022-09-06T10:24:52.432Z,32.30
2022-09-06T10:29:18.592Z,33.50
2022-09-06T10:33:55.317Z,34.40
2022-09-06T10:38:46.836Z,37.30
2022-09-06T10:43:19.297Z,39.20
2022-09-06T10:48:24.752Z,38.10
2022-09-06T10:52:49.152Z,37.80
2022-09-06T11:02:45.359Z,37.30
2022-09-06T11:07:38.151Z,37.40
2022-09-06T11:12:06.531Z,34.90
2022-09-06T11:16:39.792Z,33.50
2022-09-06T11:21:51.052Z,32.90
2022-09-06T11:26:35.332Z,32.30
2022-09-06T11:30:59.264Z,31.80
2022-09-06T11:35:27.453Z,32.10
2022-09-06T11:40:32.126Z,32.30
2022-09-06T11:45:41.374Z,32.20
2022-09-06T11:50:21.851Z,31.70
2022-09-06T11:54:46.932Z,31.10
2022-09-06T11:59:20.511Z,30.10
2022-09-06T12:04:04.872Z,29.10
2022-09-06T12:08:34.308Z,28.00
2022-09-06T12:12:57.312Z,26.70
2022-09-06T12:17:21.111Z,25.30
2022-09-06T12:21:52.536Z,23.90
2022-09-06T12:26:55.533Z,21.60
2022-09-06T12:31:36.685Z,19.60
2022-09-06T12:36:23.732Z,18.00
2022-09-06T12:40:48.853Z,17.40
2022-09-06T12:45:12.514Z,17.20
2022-09-06T12:49:34.574Z,17.30
2022-09-06T12:54:04.393Z,17.20
2022-09-06T12:58:29.743Z,17.10
2022-09-06T13:02:56.744Z,16.90
2022-09-06T13:07:21.912Z,16.80
2022-09-06T13:11:50.094Z,16.70
2022-09-06T13:16:12.418Z,16.70
2022-09-06T13:20:34.567Z,16.90
2022-09-06T13:24:56.792Z,17.00
2022-09-06T13:29:20.130Z,17.00
2022-09-06T13:33:42.268Z,16.90
2022-09-06T13:38:43.432Z,16.80
2022-09-06T13:43:13.112Z,16.80
2022-09-06T13:47:35.193Z,17.00
2022-09-06T13:52:03.233Z,17.50
2022-09-06T13:56:25.295Z,18.20
2022-09-06T14:00:47.468Z,18.60
2022-09-06T14:05:13.512Z,18.60
2022-09-06T14:09:35.412Z,18.60
2022-09-06T14:13:57.735Z,18.40
2022-09-06T14:18:19.534Z,18.50
2022-09-06T14:22:41.633Z,18.80
2022-09-06T14:27:05.733Z,19.30
2022-09-06T14:31:28.904Z,19.90
2022-09-06T14:35:50.874Z,20.30
2022-09-06T14:40:13.166Z,20.20
2022-09-06T14:44:35.355Z,20.10
2022-09-06T14:49:01.993Z,19.90
2022-09-06T14:53:39.723Z,19.80
2022-09-06T14:58:02.772Z,19.70
2022-09-06T15:02:26.493Z,19.90
2022-09-06T15:06:48.652Z,20.20
2022-09-06T15:11:12.391Z,20.20
2022-09-06T15:15:34.527Z,20.20
2022-09-06T15:19:56.601Z,20.30
2022-09-06T15:24:19.860Z,20.50
2022-09-06T15:28:46.240Z,20.50
2022-09-06T15:33:10.269Z,20.50
2022-09-06T15:37:32.412Z,20.50
2022-09-06T15:41:54.677Z,20.50
2022-09-06T15:46:23.344Z,20.50
2022-09-06T15:50:51.671Z,20.50
2022-09-06T15:55:32.472Z,20.50
2022-09-06T15:59:55.644Z,20.50
2022-09-06T16:04:17.456Z,20.60
2022-09-06T16:08:39.816Z,20.60
2022-09-06T16:13:01.835Z,20.60
2022-09-06T16:17:27.553Z,20.60
2022-09-06T16:21:49.413Z,20.60
2022-09-06T16:26:11.493Z,20.50
2022-09-06T16:30:33.509Z,20.40
2022-09-06T16:34:55.894Z,20.40
2022-09-06T16:39:17.934Z,20.40
2022-09-06T16:43:40.373Z,20.40
2022-09-06T16:48:02.654Z,20.40
2022-09-06T16:52:25.042Z,20.40
2022-09-06T16:56:47.392Z,20.40
2022-09-06T17:01:10.966Z,20.30
2022-09-06T17:05:35.685Z,20.20
2022-09-06T17:09:57.853Z,20.00
2022-09-06T17:14:20.013Z,19.90
2022-09-06T17:18:41.965Z,19.70
2022-09-06T17:23:04.057Z,19.60
2022-09-06T17:27:26.285Z,19.50
2022-09-06T17:31:49.755Z,19.30
2022-09-06T17:36:18.873Z,19.20
2022-09-06T17:40:41.173Z,19.00
2022-09-06T17:45:03.374Z,18.80
2022-09-06T17:49:27.064Z,18.70
2022-09-06T17:53:49.134Z,18.70
2022-09-06T17:58:11.832Z,18.70
2022-09-06T18:02:33.793Z,18.50
2022-09-06T18:06:56.093Z,18.40
2022-09-06T18:11:32.093Z,18.20
2022-09-06T18:15:54.340Z,18.20
2022-09-06T18:20:16.486Z,18.00
2022-09-06T18:24:38.491Z,17.90
2022-09-06T18:29:01.278Z,17.70
2022-09-06T18:33:23.996Z,17.60
2022-09-06T18:37:46.033Z,17.60
2022-09-06T18:42:11.414Z,17.50
2022-09-06T18:46:36.725Z,17.50
2022-09-06T18:51:13.313Z,17.40
2022-09-06T18:55:44.972Z,17.40
2022-09-06T19:00:07.898Z,17.40
2022-09-06T19:04:30.213Z,17.40
2022-09-06T19:08:54.005Z,17.40
2022-09-06T19:13:15.952Z,17.50
2022-09-06T19:17:38.377Z,17.50
2022-09-06T19:22:00.719Z,17.40
2022-09-06T19:26:24.707Z,17.30
2022-09-06T19:30:47.108Z,17.00
2022-09-06T19:35:09.913Z,16.90
2022-09-06T19:39:36.768Z,16.80
2022-09-06T19:44:00.272Z,16.70
2022-09-06T19:48:22.839Z,16.50
2022-09-06T19:52:45.093Z,16.40
2022-09-06T19:57:06.993Z,16.30
2022-09-06T20:01:32.963Z,16.20
2022-09-06T20:05:59.732Z,16.10
2022-09-06T20:10:22.053Z,16.10
2022-09-06T20:14:44.269Z,16.00
2022-09-06T20:19:06.639Z,15.90
2022-09-06T20:23:30.992Z,15.90
2022-09-06T20:27:53.273Z,15.80
2022-09-06T20:32:15.114Z,15.80
2022-09-06T20:36:37.460Z,15.70
2022-09-06T20:41:11.232Z,15.70
2022-09-06T20:45:33.535Z,15.60
2022-09-06T20:49:55.633Z,15.60
2022-09-06T20:54:17.853Z,15.60
2022-09-06T20:58:41.084Z,15.60
2022-09-06T21:03:03.033Z,15.70
2022-09-06T21:07:25.164Z,15.80
2022-09-06T21:11:47.814Z,15.80
2022-09-06T21:16:10.556Z,15.80
2022-09-06T21:20:32.850Z,15.70
2022-09-06T21:24:54.833Z,15.60
2022-09-06T21:29:16.573Z,15.50
2022-09-06T21:33:47.560Z,15.30
2022-09-06T21:38:09.358Z,15.20
2022-09-06T21:42:31.013Z,15.10
2022-09-06T21:46:53.291Z,15.10
2022-09-06T21:51:18.813Z,15.00
2022-09-06T21:55:41.813Z,15.00
2022-09-06T22:00:06.096Z,14.90
2022-09-06T22:04:27.873Z,15.00
2022-09-06T22:08:49.912Z,15.00
2022-09-06T22:13:11.853Z,15.10
2022-09-06T22:17:33.995Z,15.10
2022-09-06T22:21:56.113Z,15.00
2022-09-06T22:26:18.994Z,15.00
2022-09-06T22:30:40.873Z,14.90
2022-09-06T22:35:06.091Z,14.90
2022-09-06T22:39:28.149Z,14.80
2022-09-06T22:43:50.233Z,14.80
2022-09-06T22:48:13.335Z,14.70
2022-09-06T22:52:35.455Z,14.60
2022-09-06T22:56:57.644Z,14.60
2022-09-06T23:01:20.029Z,14.60
2022-09-06T23:05:42.352Z,14.50
2022-09-06T23:10:05.432Z,14.50
2022-09-06T23:14:29.159Z,14.50
2022-09-06T23:18:51.530Z,14.50
2022-09-06T23:23:13.834Z,14.50
2022-09-06T23:27:35.818Z,14.60
2022-09-06T23:31:57.853Z,14.50
2022-09-06T23:36:19.836Z,14.30
2022-09-06T23:40:41.992Z,14.20
2022-09-06T23:45:04.733Z,14.20
2022-09-06T23:49:26.493Z,14.10
2022-09-06T23:53:48.654Z,14.00
2022-09-06T23:58:11.533Z,14.00
